createdAt,value
2019-02-08T00:00:58.512Z,11.63
2019-02-08T00:03:27.729Z,11.48
2019-02-08T00:05:56.963Z,10.63
2019-02-08T00:08:26.350Z,10.82
2019-02-08T00:10:55.539Z,10.55
2019-02-08T00:13:24.737Z,10.53
2019-02-08T00:15:53.971Z,10.68
2019-02-08T00:18:23.181Z,10.72
2019-02-08T00:20:52.452Z,9.88
2019-02-08T00:23:27.148Z,9.83
2019-02-08T00:25:52.939Z,9.45
2019-02-08T00:28:22.138Z,9.40
2019-02-08T00:30:51.483Z,9.45
2019-02-08T00:33:20.810Z,9.45
2019-02-08T00:35:50.137Z,9.40
2019-02-08T00:38:19.728Z,9.33
2019-02-08T00:40:48.923Z,9.18
2019-02-08T00:43:18.182Z,9.38
2019-02-08T00:45:47.372Z,9.28
2019-02-08T00:48:16.611Z,9.25
2019-02-08T00:50:45.923Z,9.78
2019-02-08T00:53:15.110Z,9.13
2019-02-08T00:55:44.388Z,9.50
2019-02-08T00:58:13.576Z,9.28
2019-02-08T01:00:42.807Z,8.60
2019-02-08T01:03:12.078Z,8.33
2019-02-08T01:05:41.279Z,8.63
2019-02-08T01:08:10.526Z,8.50
2019-02-08T01:10:39.913Z,7.97
2019-02-08T01:13:09.114Z,7.77
2019-02-08T01:15:38.348Z,7.53
2019-02-08T01:18:07.552Z,8.45
2019-02-08T01:20:36.779Z,7.50
2019-02-08T01:23:05.980Z,7.55
2019-02-08T01:25:35.176Z,7.97
2019-02-08T01:28:04.565Z,7.97
2019-02-08T01:30:34.256Z,8.10
2019-02-08T01:33:04.231Z,8.30
2019-02-08T01:35:33.527Z,8.13
2019-02-08T01:38:02.709Z,8.30
2019-02-08T01:40:34.732Z,9.00
2019-02-08T01:43:04.872Z,8.00
2019-02-08T01:45:34.182Z,8.53
2019-02-08T01:48:06.807Z,7.75
2019-02-08T01:50:36.734Z,7.75
2019-02-08T01:53:06.171Z,7.87
2019-02-08T01:55:36.642Z,8.00
2019-02-08T01:58:06.082Z,7.42
2019-02-08T02:00:40.094Z,8.18
2019-02-08T02:03:10.104Z,7.83
2019-02-08T02:05:39.329Z,7.67
2019-02-08T02:08:08.563Z,8.25
2019-02-08T02:10:45.306Z,7.97
2019-02-08T02:13:14.582Z,8.00
2019-02-08T02:15:43.792Z,8.18
2019-02-08T02:18:13.067Z,8.40
2019-02-08T02:20:43.627Z,7.47
2019-02-08T02:23:14.760Z,8.13
2019-02-08T02:25:44.489Z,7.72
2019-02-08T02:28:14.696Z,8.28
2019-02-08T02:30:43.891Z,8.00
2019-02-08T02:33:14.234Z,8.13
2019-02-08T02:35:43.463Z,8.00
2019-02-08T02:38:12.819Z,8.65
2019-02-08T02:40:42.024Z,8.05
2019-02-08T02:43:11.217Z,8.03
2019-02-08T02:45:40.917Z,8.95
2019-02-08T02:48:11.888Z,8.67
2019-02-08T02:50:41.125Z,9.05
2019-02-08T02:53:10.637Z,9.33
2019-02-08T02:55:40.938Z,9.20
2019-02-08T02:58:11.249Z,8.85
2019-02-08T03:00:43.268Z,8.95
2019-02-08T03:03:12.969Z,8.78
2019-02-08T03:05:42.251Z,9.13
2019-02-08T03:08:12.999Z,8.65
2019-02-08T03:10:42.239Z,9.30
2019-02-08T03:13:11.569Z,9.40
2019-02-08T03:15:40.801Z,9.63
2019-02-08T03:18:10.021Z,9.55
2019-02-08T03:20:39.273Z,9.25
2019-02-08T03:23:08.460Z,8.90
2019-02-08T03:25:37.694Z,9.05
2019-02-08T03:28:06.906Z,8.85
2019-02-08T03:30:46.902Z,8.95
2019-02-08T03:33:16.145Z,9.17
2019-02-08T03:35:45.367Z,8.63
2019-02-08T03:38:14.630Z,7.83
2019-02-08T03:40:43.861Z,8.75
2019-02-08T03:43:13.080Z,8.25
2019-02-08T03:45:44.196Z,8.80
2019-02-08T03:48:13.390Z,7.90
2019-02-08T03:50:42.645Z,8.48
2019-02-08T03:53:11.887Z,8.03
2019-02-08T03:55:41.092Z,8.15
2019-02-08T03:58:10.324Z,8.23
2019-02-08T04:00:41.239Z,8.33
2019-02-08T04:03:10.514Z,8.18
2019-02-08T04:05:39.761Z,8.58
2019-02-08T04:08:08.997Z,8.24
2019-02-08T04:10:38.198Z,7.15
2019-02-08T04:13:07.426Z,7.42
2019-02-08T04:15:36.704Z,7.30
2019-02-08T04:18:05.927Z,7.50
2019-02-08T04:20:35.123Z,6.93
2019-02-08T04:23:04.467Z,6.55
2019-02-08T04:25:33.636Z,6.78
2019-02-08T04:28:02.905Z,6.20
2019-02-08T04:30:32.644Z,6.25
2019-02-08T04:33:02.428Z,6.17
2019-02-08T04:35:31.655Z,6.17
2019-02-08T04:38:00.865Z,6.22
2019-02-08T04:40:31.020Z,6.58
2019-02-08T04:43:00.268Z,5.92
2019-02-08T04:45:29.522Z,5.53
2019-02-08T04:47:58.767Z,6.10
2019-02-08T04:50:28.809Z,5.97
2019-02-08T04:52:58.068Z,6.42
2019-02-08T04:55:27.329Z,6.08
2019-02-08T04:57:56.577Z,5.40
2019-02-08T05:00:34.204Z,6.00
2019-02-08T05:03:04.691Z,5.82
2019-02-08T05:05:33.893Z,5.72
2019-02-08T05:08:04.650Z,5.32
2019-02-08T05:10:34.344Z,5.78
2019-02-08T05:13:04.332Z,5.17
2019-02-08T05:15:33.528Z,5.00
2019-02-08T05:18:02.759Z,5.03
2019-02-08T05:20:32.466Z,5.53
2019-02-08T05:23:01.717Z,5.28
2019-02-08T05:25:31.311Z,5.30
2019-02-08T05:28:00.702Z,5.25
2019-02-08T05:30:37.045Z,5.08
2019-02-08T05:33:06.301Z,4.85
2019-02-08T05:35:35.485Z,5.20
2019-02-08T05:38:04.995Z,5.00
2019-02-08T05:40:34.220Z,5.20
2019-02-08T05:43:04.753Z,5.37
2019-02-08T05:45:34.938Z,5.47
2019-02-08T05:48:04.607Z,6.07
2019-02-08T05:50:33.842Z,7.40
2019-02-08T05:53:03.089Z,8.40
2019-02-08T05:55:33.743Z,8.98
2019-02-08T05:58:02.995Z,9.60
2019-02-08T06:00:53.445Z,10.65
2019-02-08T06:03:22.757Z,10.58
2019-02-08T06:05:52.097Z,9.63
2019-02-08T06:08:21.351Z,8.88
2019-02-08T06:10:50.547Z,8.63
2019-02-08T06:13:19.795Z,8.63
2019-02-08T06:15:48.988Z,8.35
2019-02-08T06:18:18.226Z,8.50
2019-02-08T06:20:47.590Z,8.70
2019-02-08T06:23:16.864Z,9.90
2019-02-08T06:25:46.064Z,9.45
2019-02-08T06:28:15.304Z,10.15
2019-02-08T06:30:44.506Z,8.88
2019-02-08T06:33:13.753Z,8.00
2019-02-08T06:35:43.130Z,8.73
2019-02-08T06:38:12.312Z,8.60
2019-02-08T06:40:43.696Z,7.80
2019-02-08T06:43:12.952Z,7.58
2019-02-08T06:45:42.187Z,5.97
2019-02-08T06:48:11.964Z,5.05
2019-02-08T06:50:41.188Z,5.33
2019-02-08T06:53:10.819Z,4.53
2019-02-08T06:55:40.032Z,4.17
2019-02-08T06:58:11.334Z,4.22
2019-02-08T07:00:47.940Z,4.50
2019-02-08T07:03:21.485Z,5.05
2019-02-08T07:06:04.440Z,4.85
2019-02-08T07:08:41.217Z,4.60
2019-02-08T07:11:18.110Z,4.90
2019-02-08T07:14:07.917Z,4.85
2019-02-08T07:16:44.728Z,5.30
2019-02-08T07:19:15.564Z,5.30
2019-02-08T07:21:49.378Z,5.70
2019-02-08T07:24:25.673Z,5.42
2019-02-08T07:26:56.541Z,5.15
2019-02-08T07:29:30.315Z,5.97
2019-02-08T07:32:06.958Z,5.00
2019-02-08T07:34:40.800Z,45.93
2019-02-08T07:37:28.299Z,5.60
2019-02-08T07:40:19.304Z,4.90
2019-02-08T07:42:50.203Z,6.40
2019-02-08T07:45:21.106Z,7.12
2019-02-08T07:48:01.199Z,8.43
2019-02-08T07:50:32.052Z,7.20
2019-02-08T07:53:03.017Z,8.13
2019-02-08T07:55:52.238Z,7.60
2019-02-08T07:58:34.975Z,7.78
2019-02-08T08:01:11.996Z,8.13
2019-02-08T08:03:42.964Z,7.80
2019-02-08T08:06:16.595Z,9.17
2019-02-08T08:09:02.277Z,8.55
2019-02-08T08:11:33.112Z,8.35
2019-02-08T08:14:16.075Z,8.48
2019-02-08T08:16:47.861Z,7.03
2019-02-08T08:19:25.331Z,7.22
2019-02-08T08:21:56.201Z,6.80
2019-02-08T08:24:41.289Z,6.22
2019-02-08T08:27:12.274Z,6.10
2019-02-08T08:29:45.874Z,5.55
2019-02-08T08:32:16.749Z,6.00
2019-02-08T08:34:52.212Z,6.75
2019-02-08T08:37:30.493Z,7.00
2019-02-08T08:40:19.757Z,7.78
2019-02-08T08:43:01.545Z,7.37
2019-02-08T08:45:45.452Z,6.50
2019-02-08T08:48:52.831Z,7.83
2019-02-08T08:51:37.435Z,7.20
2019-02-08T08:54:15.944Z,7.47
2019-02-08T08:57:00.217Z,7.58
2019-02-08T08:59:41.783Z,6.12
2019-02-08T09:02:29.362Z,5.50
2019-02-08T09:05:07.814Z,5.90
2019-02-08T09:07:49.187Z,5.40
2019-02-08T09:10:24.672Z,5.35
2019-02-08T09:13:15.208Z,4.83
2019-02-08T09:16:10.076Z,4.95
2019-02-08T09:19:15.828Z,4.65
2019-02-08T09:21:48.295Z,5.03
2019-02-08T09:24:33.702Z,5.62
2019-02-08T09:27:14.549Z,6.83
2019-02-08T09:30:02.154Z,6.97
2019-02-08T09:32:37.704Z,7.25
2019-02-08T09:35:25.218Z,6.58
2019-02-08T09:38:18.653Z,5.87
2019-02-08T09:41:07.558Z,5.72
2019-02-08T09:43:55.191Z,5.58
2019-02-08T09:46:39.737Z,6.97
2019-02-08T09:49:13.212Z,7.03
2019-02-08T09:52:05.030Z,6.92
2019-02-08T09:54:51.898Z,7.05
2019-02-08T09:57:38.943Z,6.17
2019-02-08T10:00:11.440Z,6.28
2019-02-08T10:02:55.798Z,6.03
2019-02-08T10:05:46.564Z,5.33
2019-02-08T10:08:34.191Z,6.10
2019-02-08T10:14:37.490Z,4.58
2019-02-08T10:17:41.274Z,5.15
2019-02-08T10:20:30.451Z,5.50
2019-02-08T10:23:05.533Z,4.80
2019-02-08T10:26:05.277Z,5.58
2019-02-08T10:29:07.012Z,5.65
2019-02-08T10:32:08.028Z,4.70
2019-02-08T10:35:13.926Z,5.00
2019-02-08T10:38:05.947Z,5.10
2019-02-08T10:41:00.693Z,5.15
2019-02-08T10:43:50.948Z,5.15
2019-02-08T10:46:48.474Z,5.17
2019-02-08T10:49:37.437Z,5.20
2019-02-08T10:52:15.667Z,5.53
2019-02-08T10:55:22.915Z,5.50
2019-02-08T10:58:27.215Z,5.00
2019-02-08T11:01:32.798Z,4.12
2019-02-08T11:04:11.166Z,4.55
2019-02-08T11:07:10.201Z,5.53
2019-02-08T11:10:14.478Z,6.83
2019-02-08T11:13:06.752Z,6.83
2019-02-08T11:15:46.284Z,6.70
2019-02-08T11:18:37.066Z,12.98
2019-02-08T11:21:06.324Z,5.50
2019-02-08T11:23:36.024Z,5.30
2019-02-08T11:26:05.871Z,5.00
2019-02-08T11:28:35.101Z,4.83
2019-02-08T11:31:04.616Z,5.03
2019-02-08T11:33:33.909Z,5.33
2019-02-08T11:36:04.297Z,5.80
2019-02-08T11:38:33.624Z,6.33
2019-02-08T11:41:02.890Z,6.55
2019-02-08T11:43:32.175Z,6.42
2019-02-08T11:46:01.432Z,7.00
2019-02-08T11:48:30.676Z,5.70
2019-02-08T11:50:59.880Z,5.60
2019-02-08T11:53:29.138Z,5.97
2019-02-08T11:55:58.380Z,5.00
2019-02-08T11:58:27.638Z,5.72
2019-02-08T12:00:58.053Z,5.78
2019-02-08T12:03:27.292Z,5.72
2019-02-08T12:05:56.505Z,8.83
2019-02-08T12:08:25.805Z,6.17
2019-02-08T12:10:55.024Z,5.95
2019-02-08T12:13:24.293Z,6.40
2019-02-08T12:15:53.543Z,5.50
2019-02-08T12:18:22.866Z,5.53
2019-02-08T12:20:52.122Z,5.80
2019-02-08T12:23:21.345Z,6.00
2019-02-08T12:25:50.552Z,5.75
2019-02-08T12:28:19.822Z,5.90
2019-02-08T12:30:49.043Z,5.47
2019-02-08T12:33:18.272Z,5.50
2019-02-08T12:35:47.616Z,5.37
2019-02-08T12:38:17.143Z,5.47
2019-02-08T12:40:46.373Z,5.08
2019-02-08T12:43:16.703Z,4.97
2019-02-08T12:45:46.229Z,5.53
2019-02-08T12:48:15.490Z,5.53
2019-02-08T12:50:44.738Z,5.92
2019-02-08T12:53:13.954Z,5.30
2019-02-08T12:55:43.165Z,5.03
2019-02-08T12:58:12.421Z,5.10
2019-02-08T13:00:41.699Z,4.17
2019-02-08T13:03:10.921Z,4.25
2019-02-08T13:05:40.171Z,4.53
2019-02-08T13:08:09.453Z,4.33
2019-02-08T13:10:38.718Z,4.28
2019-02-08T13:13:08.340Z,4.25
2019-02-08T13:15:37.628Z,4.30
2019-02-08T13:18:06.837Z,3.70
2019-02-08T13:20:36.061Z,4.08
2019-02-08T13:23:05.569Z,3.70
2019-02-08T13:25:35.833Z,3.85
2019-02-08T13:28:05.123Z,4.10
2019-02-08T13:30:35.442Z,4.35
2019-02-08T13:33:04.723Z,4.22
2019-02-08T13:35:34.011Z,3.65
2019-02-08T13:38:04.253Z,3.95
2019-02-08T13:40:33.550Z,3.90
2019-02-08T13:43:04.140Z,4.42
2019-02-08T13:45:33.512Z,4.42
2019-02-08T13:48:04.806Z,3.92
2019-02-08T13:50:37.137Z,4.58
2019-02-08T13:53:06.390Z,4.10
2019-02-08T13:55:35.642Z,4.70
2019-02-08T13:58:06.148Z,5.58
2019-02-08T14:00:38.674Z,5.50
2019-02-08T14:03:08.848Z,5.80
2019-02-08T14:05:38.260Z,5.87
2019-02-08T14:08:07.707Z,5.83
2019-02-08T14:10:36.893Z,6.22
2019-02-08T14:13:06.267Z,5.67
2019-02-08T14:15:36.059Z,5.80
2019-02-08T14:18:05.471Z,5.95
2019-02-08T14:20:34.698Z,6.75
2019-02-08T14:23:04.561Z,6.15
2019-02-08T14:25:33.816Z,6.47
2019-02-08T14:28:03.102Z,6.53
2019-02-08T14:30:40.749Z,6.15
2019-02-08T14:33:10.179Z,6.33
2019-02-08T14:35:39.446Z,5.67
2019-02-08T14:38:12.172Z,5.62
2019-02-08T14:40:41.373Z,5.47
2019-02-08T14:43:10.766Z,5.73
2019-02-08T14:45:40.226Z,5.67
2019-02-08T14:48:09.500Z,5.22
2019-02-08T14:50:39.319Z,4.87
2019-02-08T14:53:08.752Z,4.30
2019-02-08T14:55:37.978Z,4.78
2019-02-08T14:58:09.041Z,4.00
2019-02-08T15:00:38.358Z,4.40
2019-02-08T15:03:07.784Z,4.05
2019-02-08T15:05:36.975Z,3.83
2019-02-08T15:08:07.569Z,3.65
2019-02-08T15:10:39.678Z,3.67
2019-02-08T15:13:08.949Z,3.90
2019-02-08T15:15:38.161Z,3.65
2019-02-08T15:18:07.471Z,3.62
2019-02-08T15:20:37.622Z,3.20
2019-02-08T15:23:07.036Z,3.72
2019-02-08T15:25:36.265Z,3.37
2019-02-08T15:28:05.599Z,3.30
2019-02-08T15:30:38.376Z,2.90
2019-02-08T15:33:07.834Z,3.30
2019-02-08T15:35:37.054Z,3.80
2019-02-08T15:38:06.548Z,3.50
2019-02-08T15:40:41.905Z,3.35
2019-02-08T15:43:12.770Z,3.37
2019-02-08T15:45:44.430Z,3.10
2019-02-08T15:48:13.741Z,3.67
2019-02-08T15:50:43.034Z,3.00
2019-02-08T15:53:12.410Z,3.05
2019-02-08T15:55:45.223Z,3.35
2019-02-08T15:58:14.551Z,3.70
2019-02-08T16:00:44.021Z,3.37
2019-02-08T16:03:13.234Z,3.50
2019-02-08T16:05:43.809Z,3.22
2019-02-08T16:08:13.006Z,3.12
2019-02-08T16:10:42.331Z,10.88
2019-02-08T16:13:11.923Z,3.10
2019-02-08T16:15:41.136Z,4.20
2019-02-08T16:18:10.379Z,3.37
2019-02-08T16:20:40.686Z,3.33
2019-02-08T16:23:09.961Z,2.70
2019-02-08T16:25:39.222Z,2.87
2019-02-08T16:28:08.697Z,2.87
2019-02-08T16:30:37.971Z,2.72
2019-02-08T16:33:08.671Z,2.98
2019-02-08T16:35:37.942Z,3.02
2019-02-08T16:38:07.793Z,3.10
2019-02-08T16:40:39.924Z,3.02
2019-02-08T16:43:09.133Z,3.40
2019-02-08T16:45:39.609Z,3.10
2019-02-08T16:48:13.227Z,3.40
2019-02-08T16:50:43.059Z,3.02
2019-02-08T16:53:13.502Z,3.33
2019-02-08T16:55:42.942Z,3.22
2019-02-08T16:58:12.744Z,3.40
2019-02-08T17:00:42.625Z,3.00
2019-02-08T17:03:13.413Z,3.27
2019-02-08T17:05:42.948Z,3.33
2019-02-08T17:08:12.183Z,3.17
2019-02-08T17:10:42.439Z,3.20
2019-02-08T17:13:11.735Z,3.40
2019-02-08T17:15:40.998Z,3.27
2019-02-08T17:18:10.279Z,3.47
2019-02-08T17:20:48.300Z,3.58
2019-02-08T17:23:17.876Z,2.90
2019-02-08T17:25:47.127Z,3.30
2019-02-08T17:28:16.361Z,2.60
2019-02-08T17:30:45.610Z,2.87
2019-02-08T17:33:14.815Z,2.95
2019-02-08T17:35:44.056Z,2.65
2019-02-08T17:38:13.271Z,3.10
2019-02-08T17:40:47.601Z,3.00
2019-02-08T17:43:17.984Z,2.72
2019-02-08T17:45:47.226Z,3.40
2019-02-08T17:48:16.789Z,2.52
2019-02-08T17:50:46.067Z,2.80
2019-02-08T17:53:15.237Z,2.65
2019-02-08T17:55:44.602Z,3.15
2019-02-08T17:58:13.880Z,3.27
2019-02-08T18:00:52.746Z,3.30
2019-02-08T18:03:21.934Z,2.98
2019-02-08T18:05:51.371Z,3.20
2019-02-08T18:08:20.878Z,2.80
2019-02-08T18:10:50.207Z,2.75
2019-02-08T18:13:19.507Z,2.98
2019-02-08T18:15:48.697Z,2.72
2019-02-08T18:18:18.228Z,3.25
2019-02-08T18:20:59.572Z,2.30
2019-02-08T18:23:28.870Z,2.65
2019-02-08T18:25:58.174Z,2.67
2019-02-08T18:28:27.492Z,2.50
2019-02-08T18:30:57.029Z,2.40
2019-02-08T18:33:26.635Z,2.77
2019-02-08T18:35:55.875Z,2.87
2019-02-08T18:38:25.256Z,2.92
2019-02-08T18:40:54.606Z,2.67
2019-02-08T18:43:23.795Z,2.60
2019-02-08T18:45:53.109Z,3.00
2019-02-08T18:48:22.534Z,2.75
2019-02-08T18:50:53.618Z,2.65
2019-02-08T18:53:23.912Z,2.98
2019-02-08T18:55:53.155Z,3.03
2019-02-08T18:58:22.475Z,3.27
2019-02-08T19:00:53.547Z,3.10
2019-02-08T19:03:23.976Z,2.67
2019-02-08T19:05:53.189Z,2.55
2019-02-08T19:08:22.422Z,2.65
2019-02-08T19:10:51.744Z,2.40
2019-02-08T19:13:21.072Z,2.77
2019-02-08T19:15:50.457Z,2.60
2019-02-08T19:18:19.998Z,2.35
2019-02-08T19:20:49.234Z,2.50
2019-02-08T19:23:18.479Z,2.77
2019-02-08T19:25:47.677Z,2.80
2019-02-08T19:28:16.877Z,2.58
2019-02-08T19:30:46.238Z,2.37
2019-02-08T19:33:15.466Z,2.00
2019-02-08T19:35:44.667Z,2.62
2019-02-08T19:38:13.907Z,2.30
2019-02-08T19:40:48.053Z,2.47
2019-02-08T19:43:17.394Z,2.27
2019-02-08T19:45:46.962Z,2.42
2019-02-08T19:48:16.219Z,2.23
2019-02-08T19:50:47.392Z,2.10
2019-02-08T19:53:16.863Z,2.22
2019-02-08T19:55:46.058Z,2.92
2019-02-08T19:58:15.334Z,2.20
2019-02-08T20:00:45.212Z,2.30
2019-02-08T20:03:14.415Z,2.40
2019-02-08T20:05:43.648Z,2.10
2019-02-08T20:08:13.878Z,2.10
2019-02-08T20:10:49.148Z,2.12
2019-02-08T20:13:18.372Z,2.30
2019-02-08T20:15:47.661Z,2.12
2019-02-08T20:18:16.843Z,2.42
2019-02-08T20:20:47.012Z,2.12
2019-02-08T20:23:16.314Z,2.20
2019-02-08T20:25:46.348Z,2.30
2019-02-08T20:28:16.807Z,2.00
2019-02-08T20:30:46.083Z,2.00
2019-02-08T20:33:15.445Z,2.22
2019-02-08T20:35:44.686Z,2.35
2019-02-08T20:38:13.887Z,2.10
2019-02-08T20:40:46.590Z,2.30
2019-02-08T20:43:15.789Z,2.10
2019-02-08T20:45:45.031Z,1.90
2019-02-08T20:48:19.442Z,1.92
2019-02-08T20:50:48.629Z,2.12
2019-02-08T20:53:17.876Z,2.05
2019-02-08T20:55:47.086Z,1.82
2019-02-08T20:58:17.388Z,2.05
2019-02-08T21:00:48.522Z,1.95
2019-02-08T21:03:18.380Z,2.08
2019-02-08T21:05:47.855Z,2.02
2019-02-08T21:08:17.452Z,2.50
2019-02-08T21:10:46.782Z,2.05
2019-02-08T21:13:15.995Z,1.75
2019-02-08T21:15:45.261Z,2.30
2019-02-08T21:18:14.507Z,2.17
2019-02-08T21:20:43.836Z,2.47
2019-02-08T21:23:13.053Z,3.50
2019-02-08T21:25:42.551Z,2.85
2019-02-08T21:28:11.931Z,2.15
2019-02-08T21:30:41.158Z,1.85
2019-02-08T21:33:11.254Z,2.17
2019-02-08T21:35:40.496Z,2.60
2019-02-08T21:38:09.831Z,2.98
2019-02-08T21:40:39.143Z,2.20
2019-02-08T21:43:08.334Z,2.10
2019-02-08T21:45:39.608Z,2.05
2019-02-08T21:48:09.691Z,2.04
2019-02-08T21:50:38.961Z,2.17
2019-02-08T21:53:08.154Z,1.80
2019-02-08T21:55:37.390Z,1.92
2019-02-08T21:58:06.768Z,1.87
2019-02-08T22:00:40.583Z,2.10
2019-02-08T22:03:09.828Z,2.12
2019-02-08T22:05:41.998Z,1.90
2019-02-08T22:08:11.526Z,1.95
2019-02-08T22:10:40.729Z,1.75
2019-02-08T22:13:10.123Z,1.82
2019-02-08T22:15:44.010Z,2.00
2019-02-08T22:18:13.256Z,2.12
2019-02-08T22:20:42.444Z,1.62
2019-02-08T22:23:11.698Z,1.98
2019-02-08T22:25:40.877Z,1.87
2019-02-08T22:28:10.096Z,1.65
2019-02-08T22:30:39.338Z,1.70
2019-02-08T22:33:10.166Z,1.70
2019-02-08T22:35:39.399Z,1.80
2019-02-08T22:38:09.067Z,1.50
2019-02-08T22:40:38.440Z,1.52
2019-02-08T22:43:07.669Z,1.60
2019-02-08T22:45:38.855Z,1.75
2019-02-08T22:48:09.138Z,1.53
2019-02-08T22:50:38.374Z,2.05
2019-02-08T22:53:08.466Z,1.82
2019-02-08T22:55:37.824Z,1.80
2019-02-08T22:58:08.875Z,1.80
2019-02-08T23:00:54.129Z,1.80
2019-02-08T23:03:24.325Z,1.77
2019-02-08T23:05:53.557Z,1.60
2019-02-08T23:08:22.778Z,1.60
2019-02-08T23:10:53.044Z,1.70
2019-02-08T23:13:22.287Z,2.00
2019-02-08T23:15:51.543Z,1.87
2019-02-08T23:18:20.765Z,1.57
2019-02-08T23:20:49.951Z,1.90
2019-02-08T23:23:19.172Z,1.70
2019-02-08T23:25:48.374Z,1.80
2019-02-08T23:28:17.596Z,1.70
2019-02-08T23:30:46.873Z,1.72
2019-02-08T23:33:16.100Z,1.60
2019-02-08T23:35:45.295Z,1.72
2019-02-08T23:38:14.630Z,1.65
2019-02-08T23:40:44.920Z,1.60
2019-02-08T23:43:14.109Z,1.50
2019-02-08T23:45:43.350Z,1.82
2019-02-08T23:48:12.550Z,1.60
2019-02-08T23:50:41.776Z,1.80
2019-02-08T23:53:11.033Z,1.50
2019-02-08T23:55:40.243Z,1.50
2019-02-08T23:58:09.526Z,1.56
